createdAt,value
2018-06-24T00:00:42.637Z,14.5
2018-06-24T00:01:43.307Z,14.6
2018-06-24T00:02:43.976Z,14.5
2018-06-24T00:03:44.643Z,14.6
2018-06-24T00:04:45.310Z,14.5
2018-06-24T00:05:45.979Z,14.5
2018-06-24T00:06:46.647Z,14.5
2018-06-24T00:07:47.316Z,14.6
2018-06-24T00:08:47.983Z,14.4
2018-06-24T00:09:48.650Z,14.4
2018-06-24T00:10:49.318Z,14.5
2018-06-24T00:11:49.987Z,14.5
2018-06-24T00:12:50.658Z,14.5
2018-06-24T00:13:51.336Z,14.5
2018-06-24T00:14:51.993Z,14.5
2018-06-24T00:15:52.661Z,14.5
2018-06-24T00:16:53.332Z,14.5
2018-06-24T00:17:54.009Z,14.4
2018-06-24T00:18:54.706Z,14.4
2018-06-24T00:19:55.374Z,14.4
2018-06-24T00:20:56.042Z,14.4
2018-06-24T00:21:56.709Z,14.5
2018-06-24T00:22:57.376Z,14.4
2018-06-24T00:23:58.042Z,14.4
2018-06-24T00:24:58.712Z,14.5
2018-06-24T00:25:59.383Z,14.5
2018-06-24T00:27:00.051Z,14.5
2018-06-24T00:28:00.718Z,14.4
2018-06-24T00:29:01.386Z,14.4
2018-06-24T00:30:02.062Z,14.5
2018-06-24T00:31:02.722Z,14.5
2018-06-24T00:32:03.393Z,14.5
2018-06-24T00:33:04.058Z,14.5
2018-06-24T00:34:04.724Z,14.5
2018-06-24T00:35:05.392Z,14.5
2018-06-24T00:36:06.060Z,14.4
2018-06-24T00:37:06.739Z,14.5
2018-06-24T00:38:07.399Z,14.4
2018-06-24T00:39:08.067Z,14.4
2018-06-24T00:40:08.735Z,14.5
2018-06-24T00:41:09.407Z,14.4
2018-06-24T00:42:10.109Z,14.4
2018-06-24T00:43:10.778Z,14.4
2018-06-24T00:44:11.445Z,14.4
2018-06-24T00:45:12.118Z,14.4
2018-06-24T00:46:12.819Z,14.4
2018-06-24T00:47:13.486Z,14.5
2018-06-24T00:48:14.153Z,14.4
2018-06-24T00:49:14.820Z,14.3
2018-06-24T00:50:15.488Z,14.4
2018-06-24T00:51:16.157Z,14.3
2018-06-24T00:52:16.829Z,14.4
2018-06-24T00:53:17.533Z,14.3
2018-06-24T00:54:18.241Z,14.3
2018-06-24T00:55:18.910Z,14.4
2018-06-24T00:56:19.576Z,14.4
2018-06-24T00:57:20.244Z,14.5
2018-06-24T00:58:20.911Z,14.4
2018-06-24T00:59:21.579Z,14.4
2018-06-24T01:00:22.252Z,14.4
2018-06-24T01:01:22.915Z,14.5
2018-06-24T01:02:23.582Z,14.4
2018-06-24T01:03:24.250Z,14.5
2018-06-24T01:04:24.920Z,14.4
2018-06-24T01:05:25.586Z,14.5
2018-06-24T01:06:26.256Z,14.4
2018-06-24T01:07:26.925Z,14.4
2018-06-24T01:08:27.593Z,14.5
2018-06-24T01:09:28.260Z,14.3
2018-06-24T01:10:28.929Z,14.4
2018-06-24T01:11:29.597Z,14.4
2018-06-24T01:12:30.265Z,14.4
2018-06-24T01:13:30.931Z,14.4
2018-06-24T01:14:31.598Z,14.4
2018-06-24T01:15:32.315Z,14.3
2018-06-24T01:16:32.984Z,14.4
2018-06-24T01:17:33.654Z,14.4
2018-06-24T01:18:34.321Z,14.4
2018-06-24T01:19:34.989Z,14.4
2018-06-24T01:20:35.655Z,14.3
2018-06-24T01:21:36.324Z,14.3
2018-06-24T01:22:36.993Z,14.3
2018-06-24T01:23:37.699Z,14.3
2018-06-24T01:24:38.367Z,14.4
2018-06-24T01:25:39.034Z,14.3
2018-06-24T01:26:39.701Z,14.4
2018-06-24T01:27:40.369Z,14.4
2018-06-24T01:28:41.037Z,14.4
2018-06-24T01:29:41.707Z,14.3
2018-06-24T01:30:42.426Z,14.4
2018-06-24T01:31:43.095Z,14.4
2018-06-24T01:32:43.768Z,14.5
2018-06-24T01:33:44.432Z,14.4
2018-06-24T01:34:45.100Z,14.4
2018-06-24T01:35:45.768Z,14.4
2018-06-24T01:36:46.475Z,14.4
2018-06-24T01:37:47.141Z,14.4
2018-06-24T01:38:47.812Z,14.4
2018-06-24T01:39:48.516Z,14.4
2018-06-24T01:40:49.190Z,14.5
2018-06-24T01:41:49.856Z,14.4
2018-06-24T01:42:50.524Z,14.4
2018-06-24T01:43:51.191Z,14.5
2018-06-24T01:44:51.859Z,14.3
2018-06-24T01:45:52.579Z,14.3
2018-06-24T01:46:53.246Z,14.4
2018-06-24T01:47:53.914Z,14.4
2018-06-24T01:48:54.582Z,14.4
2018-06-24T01:49:55.251Z,14.4
2018-06-24T01:50:55.921Z,14.3
2018-06-24T01:51:56.588Z,14.4
2018-06-24T01:52:57.261Z,14.3
2018-06-24T01:53:57.925Z,14.3
2018-06-24T01:54:58.594Z,14.4
2018-06-24T01:55:59.263Z,14.4
2018-06-24T01:56:59.929Z,14.3
2018-06-24T01:58:00.597Z,14.3
2018-06-24T01:59:01.264Z,14.4
2018-06-24T02:00:01.931Z,14.4
2018-06-24T02:01:02.649Z,14.3
2018-06-24T02:02:03.317Z,14.3
2018-06-24T02:03:03.985Z,14.2
2018-06-24T02:04:04.654Z,14.3
2018-06-24T02:05:05.357Z,14.3
2018-06-24T02:06:06.027Z,14.2
2018-06-24T02:07:06.694Z,14.3
2018-06-24T02:08:07.360Z,14.3
2018-06-24T02:09:08.028Z,14.3
2018-06-24T02:10:08.695Z,14.3
2018-06-24T02:11:09.362Z,14.3
2018-06-24T02:12:10.032Z,14.3
2018-06-24T02:13:10.698Z,14.3
2018-06-24T02:14:11.368Z,14.4
2018-06-24T02:15:12.038Z,14.3
2018-06-24T02:16:12.705Z,14.3
2018-06-24T02:17:13.375Z,14.3
2018-06-24T02:18:14.039Z,14.3
2018-06-24T02:19:14.706Z,14.4
2018-06-24T02:20:15.373Z,14.4
2018-06-24T02:21:16.040Z,14.4
2018-06-24T02:22:16.708Z,14.3
2018-06-24T02:23:17.374Z,14.3
2018-06-24T02:24:18.041Z,14.3
2018-06-24T02:25:18.707Z,14.4
2018-06-24T02:26:19.373Z,14.3
2018-06-24T02:27:20.038Z,14.3
2018-06-24T02:28:20.704Z,14.3
2018-06-24T02:29:21.372Z,14.4
2018-06-24T02:30:22.041Z,14.3
2018-06-24T02:31:22.708Z,14.3
2018-06-24T02:32:23.375Z,14.3
2018-06-24T02:33:24.042Z,14.2
2018-06-24T02:34:24.752Z,14.2
2018-06-24T02:35:25.414Z,14.2
2018-06-24T02:36:26.081Z,14.2
2018-06-24T02:37:26.745Z,14.2
2018-06-24T02:38:27.461Z,14.3
2018-06-24T02:39:28.082Z,14.2
2018-06-24T02:40:28.750Z,14.2
2018-06-24T02:41:29.416Z,14.3
2018-06-24T02:42:30.120Z,14.3
2018-06-24T02:43:30.787Z,14.3
2018-06-24T02:44:31.459Z,14.2
2018-06-24T02:45:32.160Z,14.3
2018-06-24T02:46:32.826Z,14.3
2018-06-24T02:47:33.493Z,14.2
2018-06-24T02:48:34.160Z,14.3
2018-06-24T02:49:34.828Z,14.3
2018-06-24T02:50:35.498Z,14.3
2018-06-24T02:51:36.167Z,14.3
2018-06-24T02:52:36.835Z,14.2
2018-06-24T02:53:37.558Z,14.3
2018-06-24T02:54:38.214Z,14.2
2018-06-24T02:55:38.910Z,14.2
2018-06-24T02:56:39.579Z,14.2
2018-06-24T02:57:40.245Z,14.3
2018-06-24T02:58:40.914Z,14.3
2018-06-24T02:59:41.582Z,14.2
2018-06-24T03:00:42.253Z,14.1
2018-06-24T03:01:42.919Z,14.3
2018-06-24T03:02:43.587Z,14.2
2018-06-24T03:03:44.292Z,14.3
2018-06-24T03:04:44.959Z,14.2
2018-06-24T03:05:45.636Z,14.1
2018-06-24T03:06:46.335Z,14.1
2018-06-24T03:07:47.006Z,14.2
2018-06-24T03:08:47.676Z,14.2
2018-06-24T03:09:48.343Z,14.3
2018-06-24T03:10:49.013Z,14.2
2018-06-24T03:11:49.682Z,14.3
2018-06-24T03:12:50.351Z,14.3
2018-06-24T03:13:51.019Z,14.2
2018-06-24T03:14:51.689Z,14.3
2018-06-24T03:15:52.357Z,14.2
2018-06-24T03:16:53.077Z,14.3
2018-06-24T03:17:53.749Z,14.2
2018-06-24T03:18:54.452Z,14.2
2018-06-24T03:19:55.119Z,14.1
2018-06-24T03:20:55.788Z,14.3
2018-06-24T03:21:56.458Z,14.1
2018-06-24T03:22:57.129Z,14.3
2018-06-24T03:23:57.793Z,14.2
2018-06-24T03:24:58.461Z,14.3
2018-06-24T03:25:59.129Z,14.2
2018-06-24T03:26:59.801Z,14.2
2018-06-24T03:28:00.471Z,14.3
2018-06-24T03:29:01.141Z,14.2
2018-06-24T03:30:01.826Z,14.3
2018-06-24T03:31:02.485Z,14.2
2018-06-24T03:32:03.151Z,14.3
2018-06-24T03:33:03.820Z,14.1
2018-06-24T03:34:04.491Z,14.3
2018-06-24T03:35:05.163Z,14.3
2018-06-24T03:36:05.832Z,14.2
2018-06-24T03:37:06.504Z,14.2
2018-06-24T03:38:07.189Z,14.3
2018-06-24T03:39:07.883Z,14.1
2018-06-24T03:40:08.549Z,14.1
2018-06-24T03:41:09.220Z,14.1
2018-06-24T03:42:09.892Z,14.1
2018-06-24T03:43:10.563Z,14.2
2018-06-24T03:44:11.234Z,14.1
2018-06-24T03:45:11.902Z,14.2
2018-06-24T03:46:12.573Z,14.1
2018-06-24T03:47:13.243Z,14.1
2018-06-24T03:48:13.912Z,14.1
2018-06-24T03:49:14.593Z,14.2
2018-06-24T03:50:15.295Z,14.1
2018-06-24T03:51:15.965Z,14.1
2018-06-24T03:52:16.633Z,14.0
2018-06-24T03:53:17.304Z,14.1
2018-06-24T03:54:17.975Z,14.2
2018-06-24T03:55:18.650Z,14.1
2018-06-24T03:56:19.313Z,14.1
2018-06-24T03:57:19.988Z,14.2
2018-06-24T03:58:20.658Z,14.2
2018-06-24T03:59:21.327Z,14.1
2018-06-24T04:00:22.034Z,14.1
2018-06-24T04:01:22.706Z,14.2
2018-06-24T04:02:23.376Z,14.3
2018-06-24T04:03:24.044Z,14.3
2018-06-24T04:04:24.714Z,14.2
2018-06-24T04:05:25.387Z,14.2
2018-06-24T04:06:26.056Z,14.2
2018-06-24T04:07:26.725Z,14.3
2018-06-24T04:08:27.395Z,14.3
2018-06-24T04:09:28.066Z,14.4
2018-06-24T04:10:28.735Z,14.4
2018-06-24T04:11:29.406Z,14.4
2018-06-24T04:12:30.076Z,14.4
2018-06-24T04:13:30.746Z,14.4
2018-06-24T04:14:31.416Z,14.4
2018-06-24T04:15:32.087Z,14.5
2018-06-24T04:16:32.758Z,14.5
2018-06-24T04:17:33.427Z,14.4
2018-06-24T04:18:34.098Z,14.5
2018-06-24T04:19:34.770Z,14.5
2018-06-24T04:20:35.443Z,14.5
2018-06-24T04:21:36.152Z,14.5
2018-06-24T04:22:36.824Z,14.5
2018-06-24T04:23:37.496Z,14.5
2018-06-24T04:24:38.166Z,14.6
2018-06-24T04:25:38.848Z,14.6
2018-06-24T04:26:39.511Z,14.7
2018-06-24T04:27:40.182Z,14.7
2018-06-24T04:28:40.853Z,14.6
2018-06-24T04:29:41.526Z,14.7
2018-06-24T04:30:42.198Z,14.7
2018-06-24T04:31:42.872Z,14.7
2018-06-24T04:32:43.540Z,14.7
2018-06-24T04:33:44.214Z,14.8
2018-06-24T04:34:44.885Z,14.8
2018-06-24T04:35:45.559Z,14.9
2018-06-24T04:36:46.266Z,14.9
2018-06-24T04:37:46.937Z,14.9
2018-06-24T04:38:47.615Z,14.8
2018-06-24T04:39:48.322Z,14.9
2018-06-24T04:40:48.992Z,15.0
2018-06-24T04:41:49.667Z,15.0
2018-06-24T04:42:50.338Z,15.0
2018-06-24T04:43:51.009Z,15.0
2018-06-24T04:44:51.710Z,15.0
2018-06-24T04:45:52.394Z,15.0
2018-06-24T04:46:53.067Z,15.1
2018-06-24T04:47:53.743Z,15.0
2018-06-24T04:48:54.456Z,15.0
2018-06-24T04:49:55.124Z,15.1
2018-06-24T04:50:55.795Z,15.0
2018-06-24T04:51:56.468Z,15.0
2018-06-24T04:52:57.142Z,15.0
2018-06-24T04:53:57.815Z,15.0
2018-06-24T04:54:58.522Z,15.0
2018-06-24T04:55:59.191Z,15.0
2018-06-24T04:56:59.862Z,15.0
2018-06-24T04:58:00.529Z,15.0
2018-06-24T04:59:01.198Z,15.0
2018-06-24T05:00:01.872Z,14.9
2018-06-24T05:01:02.543Z,15.0
2018-06-24T05:02:03.253Z,14.9
2018-06-24T05:03:03.925Z,14.9
2018-06-24T05:04:04.603Z,14.8
2018-06-24T05:05:05.270Z,14.9
2018-06-24T05:06:05.940Z,14.9
2018-06-24T05:07:06.615Z,14.9
2018-06-24T05:08:07.284Z,14.9
2018-06-24T05:09:07.957Z,14.9
2018-06-24T05:10:08.628Z,14.9
2018-06-24T05:11:09.301Z,15.0
2018-06-24T05:12:09.975Z,15.0
2018-06-24T05:13:10.649Z,15.1
2018-06-24T05:14:11.322Z,15.0
2018-06-24T05:15:11.996Z,15.1
2018-06-24T05:16:12.668Z,15.1
2018-06-24T05:17:13.342Z,15.2
2018-06-24T05:18:14.018Z,15.2
2018-06-24T05:19:14.692Z,15.3
2018-06-24T05:20:15.369Z,15.2
2018-06-24T05:21:16.039Z,15.4
2018-06-24T05:22:16.713Z,15.5
2018-06-24T05:23:17.388Z,15.5
2018-06-24T05:24:18.061Z,15.6
2018-06-24T05:25:18.736Z,15.6
2018-06-24T05:26:19.405Z,15.6
2018-06-24T05:27:20.081Z,15.6
2018-06-24T05:28:20.754Z,15.8
2018-06-24T05:29:21.427Z,15.8
2018-06-24T05:30:22.100Z,15.9
2018-06-24T05:31:22.777Z,15.9
2018-06-24T05:32:23.450Z,15.8
2018-06-24T05:33:24.125Z,15.9
2018-06-24T05:34:24.798Z,15.9
2018-06-24T05:35:25.474Z,16.1
2018-06-24T05:36:26.148Z,16.0
2018-06-24T05:37:26.824Z,16.0
2018-06-24T05:38:27.497Z,16.1
2018-06-24T05:39:28.172Z,16.1
2018-06-24T05:40:28.845Z,16.2
2018-06-24T05:41:29.517Z,16.3
2018-06-24T05:42:30.194Z,16.3
2018-06-24T05:43:30.869Z,16.4
2018-06-24T05:44:31.543Z,16.4
2018-06-24T05:45:32.216Z,16.5
2018-06-24T05:46:32.890Z,16.6
2018-06-24T05:47:33.567Z,16.7
2018-06-24T05:48:34.241Z,16.7
2018-06-24T05:49:34.917Z,16.7
2018-06-24T05:50:35.592Z,16.7
2018-06-24T05:51:36.268Z,16.7
2018-06-24T05:52:36.945Z,16.7
2018-06-24T05:53:37.657Z,16.7
2018-06-24T05:54:38.333Z,16.8
2018-06-24T05:55:39.008Z,16.8
2018-06-24T05:56:39.688Z,16.9
2018-06-24T05:57:40.399Z,17.0
2018-06-24T05:58:41.075Z,17.0
2018-06-24T05:59:41.751Z,17.1
2018-06-24T06:00:42.427Z,17.2
2018-06-24T06:01:43.104Z,17.3
2018-06-24T06:02:43.780Z,17.4
2018-06-24T06:03:44.458Z,17.5
2018-06-24T06:04:45.134Z,17.5
2018-06-24T06:05:45.813Z,17.6
2018-06-24T06:06:46.488Z,17.7
2018-06-24T06:07:47.164Z,17.8
2018-06-24T06:08:47.841Z,17.9
2018-06-24T06:09:48.517Z,18.0
2018-06-24T06:10:49.198Z,18.2
2018-06-24T06:11:49.920Z,18.5
2018-06-24T06:12:50.555Z,19.0
2018-06-24T06:13:51.226Z,19.4
2018-06-24T06:14:51.907Z,19.9
2018-06-24T06:15:52.621Z,20.3
2018-06-24T06:16:53.299Z,20.6
2018-06-24T06:17:53.976Z,20.8
2018-06-24T06:18:54.654Z,20.8
2018-06-24T06:19:55.334Z,21.1
2018-06-24T06:20:56.014Z,21.4
2018-06-24T06:21:56.694Z,21.7
2018-06-24T06:22:57.370Z,21.7
2018-06-24T06:23:58.050Z,21.8
2018-06-24T06:24:58.727Z,21.9
2018-06-24T06:25:59.406Z,21.9
2018-06-24T06:27:00.086Z,22.1
2018-06-24T06:28:00.766Z,22.3
2018-06-24T06:29:01.494Z,22.5
2018-06-24T06:30:02.177Z,22.6
2018-06-24T06:31:02.890Z,22.3
2018-06-24T06:32:03.571Z,22.2
2018-06-24T06:33:04.252Z,22.1
2018-06-24T06:34:04.933Z,22.2
2018-06-24T06:35:05.611Z,22.4
2018-06-24T06:36:06.298Z,22.6
2018-06-24T06:37:07.014Z,23.0
2018-06-24T06:38:07.730Z,23.2
2018-06-24T06:39:08.410Z,23.6
2018-06-24T06:40:09.130Z,23.8
2018-06-24T06:41:09.787Z,24.1
2018-06-24T06:42:10.454Z,24.3
2018-06-24T06:43:11.136Z,24.6
2018-06-24T06:44:11.815Z,24.7
2018-06-24T06:45:12.549Z,24.6
2018-06-24T06:46:13.221Z,24.5
2018-06-24T06:47:13.860Z,24.5
2018-06-24T06:48:14.540Z,24.3
2018-06-24T06:49:15.220Z,24.0
2018-06-24T06:50:15.903Z,23.7
2018-06-24T06:51:16.583Z,23.3
2018-06-24T06:52:17.264Z,23.1
2018-06-24T06:53:17.946Z,23.0
2018-06-24T06:54:18.628Z,22.7
2018-06-24T06:55:19.311Z,22.2
2018-06-24T06:56:19.989Z,21.9
2018-06-24T06:57:20.670Z,22.2
2018-06-24T06:58:21.350Z,22.5
2018-06-24T06:59:22.033Z,22.8
2018-06-24T07:00:22.713Z,23.0
2018-06-24T07:01:23.395Z,23.3
2018-06-24T07:02:24.078Z,23.5
2018-06-24T07:03:24.786Z,23.5
2018-06-24T07:04:25.441Z,23.6
2018-06-24T07:05:26.120Z,23.8
2018-06-24T07:06:26.801Z,23.8
2018-06-24T07:07:27.484Z,24.0
2018-06-24T07:08:28.163Z,24.0
2018-06-24T07:09:28.846Z,24.0
2018-06-24T07:10:29.528Z,24.1
2018-06-24T07:11:30.211Z,24.1
2018-06-24T07:12:30.892Z,23.7
2018-06-24T07:13:31.573Z,23.4
2018-06-24T07:14:32.254Z,22.9
2018-06-24T07:15:32.937Z,22.8
2018-06-24T07:16:33.619Z,22.9
2018-06-24T07:17:34.304Z,22.9
2018-06-24T07:18:34.983Z,22.7
2018-06-24T07:19:35.663Z,22.5
2018-06-24T07:20:36.346Z,22.5
2018-06-24T07:21:37.064Z,22.8
2018-06-24T07:22:37.747Z,22.9
2018-06-24T07:23:38.428Z,22.9
2018-06-24T07:24:39.111Z,22.9
2018-06-24T07:25:39.794Z,23.0
2018-06-24T07:26:40.481Z,22.9
2018-06-24T07:27:41.202Z,22.8
2018-06-24T07:28:41.874Z,22.7
2018-06-24T07:29:42.557Z,22.5
2018-06-24T07:30:43.237Z,22.3
2018-06-24T07:31:43.919Z,21.9
2018-06-24T07:32:44.602Z,21.9
2018-06-24T07:33:45.495Z,21.8
2018-06-24T07:34:46.003Z,21.9
2018-06-24T07:35:46.683Z,22.0
2018-06-24T07:36:47.364Z,22.0
2018-06-24T07:37:48.045Z,22.1
2018-06-24T07:38:48.727Z,22.2
2018-06-24T07:39:49.407Z,22.2
2018-06-24T07:40:50.088Z,22.3
2018-06-24T07:41:50.768Z,22.2
2018-06-24T07:42:51.451Z,22.2
2018-06-24T07:43:52.131Z,22.3
2018-06-24T07:44:52.864Z,22.3
2018-06-24T07:45:53.543Z,22.2
2018-06-24T07:46:54.226Z,22.1
2018-06-24T07:47:54.906Z,21.6
2018-06-24T07:48:55.588Z,21.6
2018-06-24T07:49:56.269Z,21.6
2018-06-24T07:50:56.951Z,21.6
2018-06-24T07:51:57.633Z,21.5
2018-06-24T07:52:58.314Z,21.5
2018-06-24T07:53:58.996Z,21.6
2018-06-24T07:54:59.677Z,21.9
2018-06-24T07:56:00.359Z,21.8
2018-06-24T07:57:01.040Z,21.4
2018-06-24T07:58:01.715Z,20.7
2018-06-24T07:59:02.397Z,20.6
2018-06-24T08:00:03.075Z,20.5
2018-06-24T08:01:03.755Z,20.3
2018-06-24T08:02:04.434Z,20.3
2018-06-24T08:03:05.111Z,20.3
2018-06-24T08:04:05.792Z,20.0
2018-06-24T08:05:06.520Z,19.8
2018-06-24T08:06:07.150Z,19.7
2018-06-24T08:07:07.829Z,19.7
2018-06-24T08:08:08.507Z,19.7
2018-06-24T08:09:09.188Z,19.9
2018-06-24T08:10:09.866Z,20.0
2018-06-24T08:11:10.551Z,20.0
2018-06-24T08:12:11.223Z,20.1
2018-06-24T08:13:11.903Z,20.0
2018-06-24T08:14:12.582Z,19.9
2018-06-24T08:15:13.262Z,19.7
2018-06-24T08:16:13.940Z,19.8
2018-06-24T08:17:14.617Z,19.9
2018-06-24T08:18:15.300Z,19.7
2018-06-24T08:19:16.024Z,19.5
2018-06-24T08:20:16.736Z,19.5
2018-06-24T08:21:17.419Z,19.7
2018-06-24T08:22:18.131Z,20.0
2018-06-24T08:23:18.812Z,20.0
2018-06-24T08:24:19.490Z,19.6
2018-06-24T08:25:20.170Z,19.6
2018-06-24T08:26:20.848Z,19.6
2018-06-24T08:27:21.529Z,19.6
2018-06-24T08:28:22.207Z,19.5
2018-06-24T08:29:22.885Z,19.4
2018-06-24T08:30:23.564Z,19.5
2018-06-24T08:31:24.241Z,19.3
2018-06-24T08:32:24.921Z,19.3
2018-06-24T08:33:25.599Z,19.1
2018-06-24T08:34:26.279Z,19.0
2018-06-24T08:35:26.956Z,19.1
2018-06-24T08:36:27.633Z,19.2
2018-06-24T08:37:28.313Z,19.3
2018-06-24T08:38:29.029Z,19.4
2018-06-24T08:39:29.708Z,19.5
2018-06-24T08:40:30.384Z,19.5
2018-06-24T08:41:31.060Z,19.4
2018-06-24T08:42:31.739Z,19.2
2018-06-24T08:43:32.417Z,19.2
2018-06-24T08:44:33.097Z,19.3
2018-06-24T08:45:33.774Z,19.3
2018-06-24T08:46:34.455Z,19.4
2018-06-24T08:47:35.132Z,19.5
2018-06-24T08:48:35.811Z,19.5
2018-06-24T08:49:36.491Z,19.4
2018-06-24T08:50:37.168Z,19.5
2018-06-24T08:51:37.849Z,19.5
2018-06-24T08:52:38.527Z,19.6
2018-06-24T08:53:39.209Z,19.5
2018-06-24T08:54:39.925Z,19.7
2018-06-24T08:55:40.603Z,19.7
2018-06-24T08:56:41.281Z,20.0
2018-06-24T08:57:41.961Z,19.9
2018-06-24T08:58:42.639Z,19.8
2018-06-24T08:59:43.319Z,19.9
2018-06-24T09:00:44.108Z,19.9
2018-06-24T09:01:44.756Z,20.0
2018-06-24T09:02:45.435Z,20.0
2018-06-24T09:03:46.111Z,19.9
2018-06-24T09:04:46.829Z,19.9
2018-06-24T09:05:47.508Z,19.9
2018-06-24T09:06:48.186Z,19.9
2018-06-24T09:07:48.864Z,19.8
2018-06-24T09:08:49.541Z,19.8
2018-06-24T09:09:50.221Z,20.0
2018-06-24T09:10:50.901Z,20.0
2018-06-24T09:11:51.580Z,20.1
2018-06-24T09:12:52.258Z,20.2
2018-06-24T09:13:52.936Z,20.3
2018-06-24T09:14:53.622Z,20.3
2018-06-24T09:15:54.379Z,20.4
2018-06-24T09:16:54.976Z,20.4
2018-06-24T09:17:55.655Z,20.6
2018-06-24T09:18:56.341Z,20.8
2018-06-24T09:19:57.017Z,20.9
2018-06-24T09:20:57.745Z,21.0
2018-06-24T09:21:58.427Z,21.1
2018-06-24T09:22:59.105Z,21.5
2018-06-24T09:23:59.784Z,22.1
2018-06-24T09:25:00.463Z,22.7
2018-06-24T09:26:01.145Z,23.3
2018-06-24T09:27:01.823Z,24.1
2018-06-24T09:28:02.504Z,24.6
2018-06-24T09:29:03.184Z,24.9
2018-06-24T09:30:03.865Z,25.0
2018-06-24T09:31:04.545Z,25.1
2018-06-24T09:32:05.225Z,25.1
2018-06-24T09:33:05.942Z,25.0
2018-06-24T09:34:06.623Z,25.2
2018-06-24T09:35:07.305Z,25.3
2018-06-24T09:36:07.985Z,25.4
2018-06-24T09:37:08.706Z,25.5
2018-06-24T09:38:09.385Z,25.8
2018-06-24T09:39:10.064Z,26.1
2018-06-24T09:40:10.753Z,26.1
2018-06-24T09:41:11.427Z,26.0
2018-06-24T09:42:12.107Z,26.0
2018-06-24T09:43:12.789Z,25.7
2018-06-24T09:44:13.472Z,25.4
2018-06-24T09:45:14.154Z,25.2
2018-06-24T09:46:14.837Z,25.1
2018-06-24T09:47:15.518Z,24.6
2018-06-24T09:48:16.243Z,24.5
2018-06-24T09:49:16.922Z,24.6
2018-06-24T09:50:17.605Z,24.7
2018-06-24T09:51:18.288Z,24.7
2018-06-24T09:52:18.970Z,24.4
2018-06-24T09:53:19.652Z,24.1
2018-06-24T09:54:20.336Z,24.1
2018-06-24T09:55:21.022Z,23.9
2018-06-24T09:56:21.699Z,23.4
2018-06-24T09:57:22.383Z,23.2
2018-06-24T09:58:23.066Z,23.0
2018-06-24T09:59:23.747Z,22.7
2018-06-24T10:00:24.428Z,22.7
2018-06-24T10:01:25.111Z,22.6
2018-06-24T10:02:25.793Z,22.6
2018-06-24T10:03:26.568Z,23.0
2018-06-24T10:04:27.156Z,23.0
2018-06-24T10:05:27.838Z,23.2
2018-06-24T10:06:28.524Z,22.9
2018-06-24T10:07:29.203Z,22.9
2018-06-24T10:08:29.885Z,23.2
2018-06-24T10:09:30.570Z,23.6
2018-06-24T10:10:31.252Z,23.9
2018-06-24T10:11:31.932Z,23.6
2018-06-24T10:12:32.668Z,23.2
2018-06-24T10:13:33.343Z,22.7
2018-06-24T10:14:34.022Z,22.8
2018-06-24T10:15:34.703Z,23.0
2018-06-24T10:16:35.385Z,23.2
2018-06-24T10:17:36.199Z,23.3
2018-06-24T10:18:36.789Z,23.5
2018-06-24T10:19:37.472Z,23.5
2018-06-24T10:20:38.153Z,23.4
2018-06-24T10:21:38.842Z,23.0
2018-06-24T10:22:39.518Z,22.9
2018-06-24T10:23:40.204Z,22.9
2018-06-24T10:24:40.881Z,22.9
2018-06-24T10:25:41.565Z,22.9
2018-06-24T10:26:42.246Z,22.8
2018-06-24T10:27:42.919Z,22.7
2018-06-24T10:28:43.600Z,22.7
2018-06-24T10:29:44.281Z,22.6
2018-06-24T10:30:44.964Z,22.7
2018-06-24T10:31:45.695Z,22.7
2018-06-24T10:32:46.412Z,22.5
2018-06-24T10:33:47.093Z,22.2
2018-06-24T10:34:47.776Z,22.2
2018-06-24T10:35:48.456Z,22.0
2018-06-24T10:36:49.139Z,22.0
2018-06-24T10:37:49.822Z,22.0
2018-06-24T10:38:50.503Z,21.6
2018-06-24T10:39:51.180Z,21.5
2018-06-24T10:40:51.861Z,21.4
2018-06-24T10:41:52.539Z,21.6
2018-06-24T10:42:53.219Z,21.9
2018-06-24T10:43:53.901Z,22.0
2018-06-24T10:44:54.580Z,22.1
2018-06-24T10:45:55.261Z,22.0
2018-06-24T10:46:55.941Z,22.1
2018-06-24T10:47:56.622Z,22.3
2018-06-24T10:48:57.302Z,22.5
2018-06-24T10:49:57.981Z,22.4
2018-06-24T10:50:58.663Z,22.0
2018-06-24T10:51:59.338Z,21.7
2018-06-24T10:53:00.036Z,21.5
2018-06-24T10:54:00.727Z,21.3
2018-06-24T10:55:01.410Z,21.3
2018-06-24T10:56:02.088Z,21.5
2018-06-24T10:57:02.767Z,21.5
2018-06-24T10:58:03.446Z,21.6
2018-06-24T10:59:04.119Z,21.6
2018-06-24T11:00:04.799Z,21.7
2018-06-24T11:01:05.476Z,21.9
2018-06-24T11:02:06.178Z,22.0
2018-06-24T11:03:06.834Z,21.7
2018-06-24T11:04:07.511Z,21.5
2018-06-24T11:05:08.192Z,21.4
2018-06-24T11:06:08.870Z,21.5
2018-06-24T11:07:09.600Z,21.3
2018-06-24T11:08:10.278Z,20.9
2018-06-24T11:09:10.958Z,20.9
2018-06-24T11:10:11.638Z,21.1
2018-06-24T11:11:12.317Z,21.4
2018-06-24T11:12:12.996Z,21.5
2018-06-24T11:13:13.677Z,21.5
2018-06-24T11:14:14.355Z,21.5
2018-06-24T11:15:15.034Z,21.6
2018-06-24T11:16:15.714Z,21.9
2018-06-24T11:17:16.394Z,22.0
2018-06-24T11:18:17.073Z,22.0
2018-06-24T11:19:17.751Z,21.5
2018-06-24T11:20:18.429Z,21.2
2018-06-24T11:21:19.147Z,21.2
2018-06-24T11:22:19.822Z,21.4
2018-06-24T11:23:20.533Z,21.6
2018-06-24T11:24:21.212Z,21.7
2018-06-24T11:25:21.892Z,21.9
2018-06-24T11:26:22.574Z,21.9
2018-06-24T11:27:23.253Z,22.3
2018-06-24T11:28:23.965Z,22.4
2018-06-24T11:29:24.643Z,22.5
2018-06-24T11:30:25.323Z,22.5
2018-06-24T11:31:26.005Z,22.6
2018-06-24T11:32:26.683Z,22.6
2018-06-24T11:33:27.359Z,22.5
2018-06-24T11:34:28.038Z,22.5
2018-06-24T11:35:28.718Z,22.6
2018-06-24T11:36:29.398Z,22.7
2018-06-24T11:37:30.078Z,22.8
2018-06-24T11:38:30.755Z,22.9
2018-06-24T11:39:31.432Z,22.8
2018-06-24T11:40:32.113Z,22.6
2018-06-24T11:41:32.790Z,22.3
2018-06-24T11:42:33.471Z,22.1
2018-06-24T11:43:34.153Z,22.3
2018-06-24T11:44:34.830Z,22.4
2018-06-24T11:45:35.510Z,22.6
2018-06-24T11:46:36.188Z,22.7
2018-06-24T11:47:36.906Z,22.5
2018-06-24T11:48:37.589Z,22.3
2018-06-24T11:49:38.261Z,22.0
2018-06-24T11:50:38.945Z,21.9
2018-06-24T11:51:39.621Z,22.0
2018-06-24T11:52:40.301Z,22.0
2018-06-24T11:53:41.017Z,22.1
2018-06-24T11:54:41.695Z,22.0
2018-06-24T11:55:42.374Z,22.0
2018-06-24T11:56:43.054Z,22.1
2018-06-24T11:57:43.733Z,22.0
2018-06-24T11:58:44.410Z,22.0
2018-06-24T11:59:45.090Z,22.0
2018-06-24T12:00:45.770Z,21.9
2018-06-24T12:01:46.486Z,22.0
2018-06-24T12:02:47.191Z,22.0
2018-06-24T12:03:47.845Z,22.2
2018-06-24T12:04:48.521Z,22.2
2018-06-24T12:05:49.199Z,22.3
2018-06-24T12:06:49.897Z,22.5
2018-06-24T12:07:50.560Z,22.6
2018-06-24T12:08:51.241Z,22.7
2018-06-24T12:09:51.975Z,22.5
2018-06-24T12:10:52.698Z,22.5
2018-06-24T12:11:53.346Z,22.5
2018-06-24T12:12:54.027Z,22.7
2018-06-24T12:13:54.745Z,22.9
2018-06-24T12:14:55.424Z,23.0
2018-06-24T12:15:56.141Z,22.8
2018-06-24T12:16:56.819Z,22.4
2018-06-24T12:17:57.536Z,21.9
2018-06-24T12:18:58.214Z,21.9
2018-06-24T12:19:58.897Z,21.7
2018-06-24T12:20:59.613Z,21.7
2018-06-24T12:22:00.293Z,21.5
2018-06-24T12:23:00.970Z,21.5
2018-06-24T12:24:01.649Z,21.6
2018-06-24T12:25:02.331Z,21.7
2018-06-24T12:26:03.008Z,21.9
2018-06-24T12:27:03.687Z,22.1
2018-06-24T12:28:04.364Z,22.2
2018-06-24T12:29:05.045Z,22.6
2018-06-24T12:30:05.726Z,22.6
2018-06-24T12:31:06.443Z,22.7
2018-06-24T12:32:07.122Z,22.8
2018-06-24T12:33:07.803Z,22.9
2018-06-24T12:34:08.521Z,23.0
2018-06-24T12:35:09.202Z,23.1
2018-06-24T12:36:09.880Z,23.2
2018-06-24T12:37:10.558Z,23.3
2018-06-24T12:38:11.286Z,23.4
2018-06-24T12:39:11.971Z,23.4
2018-06-24T12:40:12.646Z,23.5
2018-06-24T12:41:13.327Z,23.4
2018-06-24T12:42:14.006Z,23.4
2018-06-24T12:43:14.683Z,23.1
2018-06-24T12:44:15.400Z,23.0
2018-06-24T12:45:16.080Z,22.9
2018-06-24T12:46:16.759Z,22.8
2018-06-24T12:47:17.438Z,22.9
2018-06-24T12:48:18.115Z,23.1
2018-06-24T12:49:18.793Z,23.2
2018-06-24T12:50:19.474Z,23.4
2018-06-24T12:51:20.151Z,23.4
2018-06-24T12:52:20.830Z,23.6
2018-06-24T12:53:21.509Z,23.6
2018-06-24T12:54:22.189Z,23.1
2018-06-24T12:55:22.870Z,22.9
2018-06-24T12:56:23.549Z,22.9
2018-06-24T12:57:24.229Z,22.6
2018-06-24T12:58:25.027Z,22.5
2018-06-24T12:59:25.881Z,22.4
2018-06-24T13:00:26.711Z,22.3
2018-06-24T13:01:26.947Z,22.3
2018-06-24T13:02:27.626Z,22.3
2018-06-24T13:03:28.305Z,22.3
2018-06-24T13:04:28.983Z,22.3
2018-06-24T13:05:29.729Z,22.4
2018-06-24T13:06:30.341Z,22.5
2018-06-24T13:07:31.021Z,22.6
2018-06-24T13:08:31.700Z,22.8
2018-06-24T13:09:32.377Z,22.9
2018-06-24T13:10:33.057Z,23.2
2018-06-24T13:11:33.737Z,23.2
2018-06-24T13:12:34.456Z,23.4
2018-06-24T13:13:35.137Z,23.3
2018-06-24T13:14:35.851Z,23.3
2018-06-24T13:15:36.528Z,23.2
2018-06-24T13:16:37.207Z,22.9
2018-06-24T13:17:37.887Z,22.8
2018-06-24T13:18:38.567Z,22.5
2018-06-24T13:19:39.242Z,22.4
2018-06-24T13:20:39.921Z,22.1
2018-06-24T13:21:40.640Z,22.1
2018-06-24T13:22:41.320Z,22.2
2018-06-24T13:23:42.036Z,22.2
2018-06-24T13:24:42.716Z,22.4
2018-06-24T13:25:43.396Z,22.4
2018-06-24T13:26:44.108Z,22.5
2018-06-24T13:27:44.757Z,22.7